Time,TemperatureF,DewpointF,PressureIn,WindDirection,WindDirectionDegrees,WindSpeedMPH,WindSpeedGustMPH,Humidity,HourlyPrecipIn,Conditions,Clouds,dailyrainin,SoftwareType,DateUTC
2013-01-11 00:02:00,46.8,21.9,30.19,WNW,291,5.0,11.0,37,0.00,,,0.00,meteohub,2013-01-11 08:02:00,
2013-01-11 00:22:00,46.8,21.9,30.19,North,6,8.0,12.0,37,0.00,,,0.00,meteohub,2013-01-11 08:22:00,
2013-01-11 00:42:00,47.1,22.1,30.19,NNW,329,8.0,15.0,37,0.00,,,0.00,meteohub,2013-01-11 08:42:00,
2013-01-11 01:02:00,47.3,22.3,30.19,WNW,292,7.0,15.0,37,0.00,,,0.00,meteohub,2013-01-11 09:02:00,
2013-01-11 01:22:00,47.1,22.1,30.19,WNW,295,11.0,13.0,37,0.00,,,0.00,meteohub,2013-01-11 09:22:00,
2013-01-11 01:42:00,46.9,22.1,30.19,West,269,10.0,15.0,37,0.00,,,0.00,meteohub,2013-01-11 09:42:00,
2013-01-11 02:02:00,46.4,21.6,30.19,NNW,329,6.0,12.0,37,0.00,,,0.00,meteohub,2013-01-11 10:02:00,
2013-01-11 02:22:00,46.0,21.9,30.19,NW,309,9.0,12.0,38,0.00,,,0.00,meteohub,2013-01-11 10:22:00,
2013-01-11 02:42:00,45.7,21.6,30.19,WNW,300,9.0,11.0,38,0.00,,,0.00,meteohub,2013-01-11 10:42:00,
2013-01-11 03:02:00,45.5,21.4,30.22,WNW,300,6.0,11.0,38,0.00,,,0.00,meteohub,2013-01-11 11:02:00,
2013-01-11 03:22:00,45.3,21.2,30.22,NW,320,13.0,13.0,38,0.00,,,0.00,meteohub,2013-01-11 11:22:00,
2013-01-11 03:42:00,45.3,21.2,30.22,WNW,302,5.0,11.0,38,0.00,,,0.00,meteohub,2013-01-11 11:42:00,
2013-01-11 04:02:00,45.1,21.0,30.22,NNW,341,8.0,10.0,38,0.00,,,0.00,meteohub,2013-01-11 12:02:00,
2013-01-11 04:22:00,44.6,20.5,30.22,NW,305,6.0,8.0,38,0.00,,,0.00,meteohub,2013-01-11 12:22:00,
2013-01-11 04:42:00,44.1,20.1,30.22,WNW,291,4.0,5.0,38,0.00,,,0.00,meteohub,2013-01-11 12:42:00,
2013-01-11 05:02:00,43.7,19.8,30.22,West,276,6.0,6.0,38,0.00,,,0.00,meteohub,2013-01-11 13:02:00,
2013-01-11 05:22:00,44.6,20.5,30.22,NW,322,5.0,8.0,38,0.00,,,0.00,meteohub,2013-01-11 13:22:00,
2013-01-11 05:42:00,44.2,20.3,30.22,NNW,329,5.0,9.0,38,0.00,,,0.00,meteohub,2013-01-11 13:42:00,
2013-01-11 06:02:00,42.8,18.9,30.25,NNW,348,0.0,6.0,38,0.00,,,0.00,meteohub,2013-01-11 14:02:00,
2013-01-11 06:22:00,42.1,18.3,30.25,NNE,16,0.0,4.0,38,0.00,,,0.00,meteohub,2013-01-11 14:22:00,
2013-01-11 06:42:00,40.5,17.4,30.25,NE,46,8.0,8.0,39,0.00,,,0.00,meteohub,2013-01-11 14:42:00,
2013-01-11 07:02:00,42.4,18.7,30.25,NNW,340,6.0,6.0,38,0.00,,,0.00,meteohub,2013-01-11 15:02:00,
2013-01-11 07:22:00,45.5,21.4,30.25,NW,310,10.0,11.0,38,0.00,,,0.00,meteohub,2013-01-11 15:22:00,
2013-01-11 07:42:00,46.6,21.7,30.25,NW,308,6.0,11.0,37,0.00,,,0.00,meteohub,2013-01-11 15:42:00,
2013-01-11 08:02:00,47.3,22.3,30.25,NW,325,4.0,11.0,37,0.00,,,0.00,meteohub,2013-01-11 16:02:00,
2013-01-11 08:22:00,48.2,23.2,30.25,WNW,296,6.0,10.0,37,0.00,,,0.00,meteohub,2013-01-11 16:22:00,
2013-01-11 08:42:00,49.3,24.1,30.25,NW,307,6.0,10.0,37,0.00,,,0.00,meteohub,2013-01-11 16:42:00,
2013-01-11 09:02:00,50.4,25.0,30.25,NNW,330,6.0,11.0,37,0.00,,,0.00,meteohub,2013-01-11 17:02:00,
2013-01-11 09:22:00,51.8,25.7,30.25,NNW,334,6.0,15.0,36,0.00,,,0.00,meteohub,2013-01-11 17:22:00,
2013-01-11 09:42:00,52.5,26.2,30.25,NNW,339,14.0,15.0,36,0.00,,,0.00,meteohub,2013-01-11 17:42:00,
2013-01-11 10:02:00,53.1,26.8,30.25,NW,315,10.0,15.0,36,0.00,,,0.00,meteohub,2013-01-11 18:02:00,
2013-01-11 10:22:00,53.6,27.3,30.25,NW,308,8.0,15.0,36,0.00,,,0.00,meteohub,2013-01-11 18:22:00,
2013-01-11 10:42:00,54.1,27.7,30.22,NW,318,9.0,16.0,36,0.00,,,0.00,meteohub,2013-01-11 18:42:00,
2013-01-11 11:02:00,54.3,27.9,30.22,NW,315,11.0,16.0,36,0.00,,,0.00,meteohub,2013-01-11 19:02:00,
2013-01-11 11:22:00,55.0,28.6,30.22,WNW,299,16.0,16.0,36,0.00,,,0.00,meteohub,2013-01-11 19:22:00,
2013-01-11 11:42:00,55.2,28.8,30.22,NW,309,10.0,14.0,36,0.00,,,0.00,meteohub,2013-01-11 19:42:00,
2013-01-11 12:02:00,56.1,28.8,30.19,NNW,330,9.0,17.0,35,0.00,,,0.00,meteohub,2013-01-11 20:02:00,
2013-01-11 12:22:00,56.7,29.3,30.19,NW,321,9.0,13.0,35,0.00,,,0.00,meteohub,2013-01-11 20:22:00,
2013-01-11 12:42:00,57.2,29.8,30.16,NW,321,8.0,15.0,35,0.00,,,0.00,meteohub,2013-01-11 20:42:00,
2013-01-11 13:02:00,58.1,30.6,30.16,West,281,6.0,13.0,35,0.00,,,0.00,meteohub,2013-01-11 21:02:00,
2013-01-11 13:22:00,57.9,30.4,30.16,WNW,302,8.0,13.0,35,0.00,,,0.00,meteohub,2013-01-11 21:22:00,
2013-01-11 13:42:00,57.4,30.0,30.16,WNW,290,11.0,12.0,35,0.00,,,0.00,meteohub,2013-01-11 21:42:00,
2013-01-11 14:02:00,57.7,30.2,30.16,NNW,339,11.0,15.0,35,0.00,,,0.00,meteohub,2013-01-11 22:02:00,
2013-01-11 14:22:00,57.9,30.4,30.16,West,263,12.0,17.0,35,0.00,,,0.00,meteohub,2013-01-11 22:22:00,
2013-01-11 14:42:00,56.8,29.5,30.16,West,278,8.0,17.0,35,0.00,,,0.00,meteohub,2013-01-11 22:42:00,
2013-01-11 15:02:00,56.8,29.5,30.16,WNW,299,7.0,15.0,35,0.00,,,0.00,meteohub,2013-01-11 23:02:00,
2013-01-11 15:22:00,56.8,29.5,30.13,West,278,9.0,16.0,35,0.00,,,0.00,meteohub,2013-01-11 23:22:00,
2013-01-11 15:42:00,55.6,28.4,30.16,West,279,9.0,15.0,35,0.00,,,0.00,meteohub,2013-01-11 23:42:00,
2013-01-11 16:02:00,54.9,28.4,30.16,WSW,253,8.0,13.0,36,0.00,,,0.00,meteohub,2013-01-12 00:02:00,
2013-01-11 16:22:00,54.7,28.2,30.16,WNW,289,13.0,13.0,36,0.00,,,0.00,meteohub,2013-01-12 00:22:00,
2013-01-11 16:42:00,52.7,26.4,30.13,West,277,9.0,13.0,36,0.00,,,0.00,meteohub,2013-01-12 00:42:00,
2013-01-11 17:02:00,51.4,26.1,30.16,WNW,282,11.0,17.0,37,0.00,,,0.00,meteohub,2013-01-12 01:02:00,
2013-01-11 17:22:00,50.9,25.5,30.16,West,280,9.0,13.0,37,0.00,,,0.00,meteohub,2013-01-12 01:22:00,
2013-01-11 17:42:00,50.9,25.5,30.16,West,274,8.0,14.0,37,0.00,,,0.00,meteohub,2013-01-12 01:42:00,
2013-01-11 18:02:00,50.9,25.5,30.16,West,281,5.0,11.0,37,0.00,,,0.00,meteohub,2013-01-12 02:02:00,
2013-01-11 18:22:00,50.5,25.2,30.16,West,279,8.0,11.0,37,0.00,,,0.00,meteohub,2013-01-12 02:22:00,
2013-01-11 18:42:00,50.0,24.8,30.16,NW,311,8.0,11.0,37,0.00,,,0.00,meteohub,2013-01-12 02:42:00,
2013-01-11 19:02:00,49.3,24.1,30.16,NW,322,4.0,11.0,37,0.00,,,0.00,meteohub,2013-01-12 03:02:00,
2013-01-11 19:22:00,48.4,23.4,30.16,NNW,334,6.0,8.0,37,0.00,,,0.00,meteohub,2013-01-12 03:22:00,
2013-01-11 19:42:00,47.5,22.5,30.16,NNW,327,6.0,9.0,37,0.00,,,0.00,meteohub,2013-01-12 03:42:00,
2013-01-11 20:02:00,47.3,22.3,30.16,NNW,338,6.0,9.0,37,0.00,,,0.00,meteohub,2013-01-12 04:02:00,
2013-01-11 20:22:00,48.0,23.0,30.13,NNW,331,8.0,13.0,37,0.00,,,0.00,meteohub,2013-01-12 04:22:00,
2013-01-11 20:42:00,47.5,22.5,30.16,NW,323,9.0,12.0,37,0.00,,,0.00,meteohub,2013-01-12 04:42:00,
2013-01-11 21:02:00,47.3,22.3,30.16,NW,322,11.0,12.0,37,0.00,,,0.00,meteohub,2013-01-12 05:02:00,
2013-01-11 21:22:00,47.1,22.1,30.16,North,357,6.0,11.0,37,0.00,,,0.00,meteohub,2013-01-12 05:22:00,
2013-01-11 21:42:00,46.2,21.9,30.16,NNW,332,13.0,13.0,38,0.00,,,0.00,meteohub,2013-01-12 05:42:00,
2013-01-11 22:02:00,46.9,22.1,30.13,NW,319,6.0,11.0,37,0.00,,,0.00,meteohub,2013-01-12 06:02:00,
2013-01-11 22:22:00,47.3,22.3,30.16,NNW,335,6.0,13.0,37,0.00,,,0.00,meteohub,2013-01-12 06:22:00,
2013-01-11 22:42:00,46.2,21.9,30.16,NNW,335,4.0,8.0,38,0.00,,,0.00,meteohub,2013-01-12 06:42:00,
2013-01-11 23:02:00,46.0,21.9,30.16,NNW,340,6.0,11.0,38,0.00,,,0.00,meteohub,2013-01-12 07:02:00,
2013-01-11 23:22:00,45.1,21.0,30.16,North,0,3.0,8.0,38,0.00,,,0.00,meteohub,2013-01-12 07:22:00,
2013-01-11 23:42:00,46.8,21.9,30.16,North,349,8.0,13.0,37,0.00,,,0.00,meteohub,2013-01-12 07:42:00,